Tropical Cyclones
[Index]
Main Index Home Page Stock Weather Photos Extreme Storms Discussion Storm News and Storm Chasing Reports Tropical Cyclones / Hurricanes / Typhoons Weather Data and Links Wild Fires / Bushfires Weather Observation Techniques Weather Picture Catalogue Tornado Pictures and Reports Stock Video Footage and DVDs for sale
Season 1971-1972 Tropical Cyclone EUGENIE Track Map
Season 1971-1972 Summaries: [BoM-AU] [JTWC-AU] [JTWC-SIO] [JTWC-SPAC] [JTWC-SH]
<<- Previous TC | JTWC 1971-1972 Season | Next TC ->>

click for intensity scale information  Lat/long Grid: Show Hide

 Date Labels: Show Hide

Joint Typhoon Warning Centre Cyclone Data

Name: EUGENIE
Number: 788 / 7217

07 Feb 1972 18:00 UTC to 21 Feb 1972 18:00 UTC

    date/time    lat    long     hPa   cat  kts
1972-02-07 18   12.8    68.1                              
1972-02-08 00   12.7    67.5                              
1972-02-08 06   13.0    67.0                              
1972-02-08 12   13.7    66.5                              
1972-02-08 18   14.4    66.0                              
1972-02-09 00   14.8    65.9                              
1972-02-09 06   15.1    65.9                              
1972-02-09 12   15.3    65.7                              
1972-02-09 18   15.4    65.5                              
1972-02-10 00   15.5    65.4                              
1972-02-10 06   15.4    65.2                              
1972-02-10 12   15.0    64.7                              
1972-02-10 18   14.6    63.8                              
1972-02-11 00   14.2    62.8                              
1972-02-11 06   14.0    61.8                              
1972-02-11 12   14.4    61.1                              
1972-02-11 18   15.0    60.4                              
1972-02-12 00   15.6    59.6                              
1972-02-12 06   16.2    58.8                              
1972-02-12 12   17.0    57.8                              
1972-02-12 18   17.9    56.6                              
1972-02-13 00   18.4    55.3                              
1972-02-13 06   18.6    54.0                              
1972-02-13 12   18.6    52.9                              
1972-02-13 18   18.6    51.8                              
1972-02-14 00   18.6    50.8                              
1972-02-14 06   18.7    49.7                              
1972-02-14 12   18.7    48.0                              
1972-02-14 18   18.8    46.2                              
1972-02-15 00   19.1    44.4                              
1972-02-15 06   19.5    42.8                              
1972-02-15 12   19.9    42.0                              
1972-02-15 18   20.3    41.5                              
1972-02-16 00   20.7    40.6                              
1972-02-16 06   21.1    39.8                              
1972-02-16 12   21.2    39.1                              
1972-02-16 18   21.1    38.5                              
1972-02-17 00   20.9    38.1                              
1972-02-17 06   20.8    38.0                              
1972-02-17 12   20.7    38.2                              
1972-02-17 18   20.6    38.5                              
1972-02-18 00   20.6    38.7                              
1972-02-18 06   20.7    39.0                              
1972-02-18 12   20.9    39.0                              
1972-02-18 18   21.3    38.7                              
1972-02-19 00   21.9    38.4                              
1972-02-19 06   22.5    38.1                              
1972-02-19 12   22.6    38.0                              
1972-02-19 18   22.7    38.0                              
1972-02-20 00   22.9    38.1                              
1972-02-20 06   23.1    38.1                              
1972-02-20 12   23.3    37.8                              
1972-02-20 18   23.5    37.4                              
1972-02-21 00   23.6    36.9                              
1972-02-21 06   23.6    36.4                              
1972-02-21 12   23.8    36.1                              
1972-02-21 18   24.1    36.0                              
Winds are 1-min average.

Tropical cyclone tracks developed by Michael Bath using data from the Joint Typhoon Warning Centre Best Tracks and Google Maps.


[Australian Severe Weather index] [Copyright Notice] [Email Contacts] [Search This Site] [Privacy Policy]
Document: tropical_cyclone_eugenie.htm Updated: 18 September 2016